This is the latest recevied weather packets stored in our database for station/object OK2ILA-14. If no packets are shown the sender has not sent any weather packets the latest 10 day(s).
| Time | Temp. | Humidity | Pressure | Rain* | Wind** | Luminosity | Snow |
|---|---|---|---|---|---|---|---|
| 1777784659 | 13.89° C | 56% | 1018 hPa | - | - | - | - |
| 1777784059 | 12.78° C | 59% | 1018.1 hPa | - | - | - | - |
| 1777783459 | 12.22° C | 60% | 1018.2 hPa | - | - | - | - |
| 1777782859 | 11.11° C | 62% | 1018.2 hPa | - | - | - | - |
| 1777782258 | 10.56° C | 65% | 1018.2 hPa | - | - | - | - |
| 1777781658 | 9.44° C | 68% | 1018.2 hPa | - | - | - | - |
| 1777781058 | 7.78° C | 73% | 1018.2 hPa | - | - | - | - |
| 1777780458 | 6.67° C | 76% | 1018.2 hPa | - | - | - | - |
| 1777779858 | 5.56° C | 79% | 1018.3 hPa | - | - | - | - |
| 1777779258 | 5° C | 79% | 1018.2 hPa | - | - | - | - |
| 1777778665 | 5° C | 79% | 1018.3 hPa | - | - | - | - |
| 1777778058 | 5° C | 78% | 1018.3 hPa | - | - | - | - |
| 1777777457 | 5° C | 79% | 1018.2 hPa | - | - | - | - |
| 1777776857 | 4.44° C | 80% | 1018.2 hPa | - | - | - | - |
| 1777776257 | 5° C | 78% | 1018.2 hPa | - | - | - | - |
| 1777775657 | 5.56° C | 78% | 1018.1 hPa | - | - | - | - |
| 1777775057 | 5° C | 79% | 1018.2 hPa | - | - | - | - |
| 1777774457 | 5° C | 78% | 1018.2 hPa | - | - | - | - |
| 1777773857 | 5° C | 78% | 1018.2 hPa | - | - | - | - |
| 1777773256 | 5° C | 78% | 1018.2 hPa | - | - | - | - |
| 1777772656 | 5.56° C | 78% | 1018.3 hPa | - | - | - | - |
| 1777772056 | 5.56° C | 77% | 1018.4 hPa | - | - | - | - |
| 1777771456 | 6.11° C | 76% | 1018.3 hPa | - | - | - | - |
| 1777770856 | 6.11° C | 76% | 1018.4 hPa | - | - | - | - |
| 1777770256 | 6.11° C | 75% | 1018.3 hPa | - | - | - | - |
* Rain since midnight (hover to see other rain measurements)
** Current wind speed in m/s (hover to see current wind gust speed)